createdAt,value
2023-04-21T00:01:00.261Z,17.58
2023-04-21T00:03:22.382Z,15.75
2023-04-21T00:05:27.294Z,21.15
2023-04-21T00:07:47.431Z,20.45
2023-04-21T00:09:51.652Z,14.90
2023-04-21T00:11:56.149Z,20.98
2023-04-21T00:14:00.343Z,19.40
2023-04-21T00:16:02.800Z,16.13
2023-04-21T00:18:07.129Z,17.58
2023-04-21T00:20:10.695Z,16.70
2023-04-21T00:22:15.047Z,13.95
2023-04-21T00:24:19.084Z,14.88
2023-04-21T00:26:23.416Z,16.08
2023-04-21T00:28:43.785Z,16.88
2023-04-21T00:30:47.820Z,20.13
2023-04-21T00:32:49.258Z,21.25
2023-04-21T00:34:50.854Z,17.52
2023-04-21T00:36:52.444Z,19.25
2023-04-21T00:38:54.174Z,18.23
2023-04-21T00:40:55.685Z,16.17
2023-04-21T00:42:57.119Z,22.35
2023-04-21T00:44:58.584Z,20.67
2023-04-21T00:47:00.135Z,16.52
2023-04-21T00:49:05.916Z,18.00
2023-04-21T00:51:10.103Z,16.35
2023-04-21T00:53:15.162Z,20.40
2023-04-21T00:55:16.835Z,20.17
2023-04-21T00:57:18.907Z,15.80
2023-04-21T00:59:21.191Z,20.55
2023-04-21T01:01:25.677Z,21.40
2023-04-21T01:03:28.370Z,20.85
2023-04-21T01:05:33.044Z,20.60
2023-04-21T01:07:34.762Z,19.60
2023-04-21T01:09:39.018Z,20.90
2023-04-21T01:11:40.707Z,22.45
2023-04-21T01:13:44.916Z,24.38
2023-04-21T01:15:46.573Z,23.52
2023-04-21T01:17:54.160Z,23.67
2023-04-21T01:20:00.489Z,18.98
2023-04-21T01:22:03.434Z,24.60
2023-04-21T01:24:07.721Z,24.50
2023-04-21T01:26:12.004Z,25.88
2023-04-21T01:28:21.033Z,25.92
2023-04-21T01:32:42.531Z,26.83
2023-04-21T01:34:47.079Z,25.38
2023-04-21T01:36:48.475Z,22.13
2023-04-21T01:38:50.026Z,19.25
2023-04-21T01:40:52.606Z,22.00
2023-04-21T01:42:56.818Z,21.48
2023-04-21T01:45:01.180Z,20.02
2023-04-21T01:47:06.556Z,23.88
2023-04-21T01:49:08.028Z,22.05
2023-04-21T01:51:09.469Z,20.75
2023-04-21T01:53:13.727Z,21.67
2023-04-21T01:55:15.360Z,24.65
2023-04-21T01:57:36.195Z,23.05
2023-04-21T01:59:40.618Z,22.05
2023-04-21T02:01:45.209Z,22.70
2023-04-21T02:03:49.874Z,27.55
2023-04-21T02:05:51.452Z,25.15
2023-04-21T02:09:56.904Z,21.98
2023-04-21T02:11:58.483Z,25.13
2023-04-21T02:13:59.970Z,23.17
2023-04-21T02:16:13.519Z,25.45
2023-04-21T02:18:18.311Z,25.23
2023-04-21T02:20:22.857Z,28.38
2023-04-21T02:22:27.259Z,28.40
2023-04-21T02:24:31.676Z,20.10
2023-04-21T02:26:51.745Z,26.73
2023-04-21T02:28:55.840Z,22.42
2023-04-21T02:31:00.528Z,29.35
2023-04-21T02:33:04.226Z,20.90
2023-04-21T02:35:18.348Z,24.92
2023-04-21T02:37:32.409Z,24.77
2023-04-21T02:39:45.815Z,28.25
2023-04-21T02:41:59.413Z,23.88
2023-04-21T02:44:08.760Z,27.98
2023-04-21T02:46:18.881Z,21.02
2023-04-21T02:48:27.885Z,27.25
2023-04-21T02:50:39.462Z,23.27
2023-04-21T02:52:53.499Z,28.15
2023-04-21T02:55:06.575Z,25.48
2023-04-21T02:57:15.706Z,29.23
2023-04-21T02:59:26.200Z,22.92
2023-04-21T03:01:38.023Z,25.77
2023-04-21T03:03:51.186Z,25.42
2023-04-21T03:06:08.729Z,28.42
2023-04-21T03:08:19.793Z,27.48
2023-04-21T03:10:22.660Z,27.45
2023-04-21T03:12:24.103Z,34.78
2023-04-21T03:14:25.599Z,34.80
2023-04-21T03:16:28.092Z,33.75
2023-04-21T03:18:29.598Z,43.88
2023-04-21T03:20:34.007Z,31.67
2023-04-21T03:22:35.807Z,24.25
2023-04-21T03:24:40.746Z,29.85
2023-04-21T03:26:42.267Z,24.52
2023-04-21T03:30:50.580Z,28.00
2023-04-21T03:32:58.800Z,31.92
2023-04-21T03:35:00.311Z,27.02
2023-04-21T03:37:04.502Z,25.05
2023-04-21T03:41:22.083Z,27.52
2023-04-21T03:43:23.569Z,33.72
2023-04-21T03:45:43.841Z,25.65
2023-04-21T03:47:45.343Z,30.45
2023-04-21T03:49:46.812Z,30.23
2023-04-21T03:52:07.014Z,27.55
2023-04-21T03:54:08.606Z,26.08
2023-04-21T03:56:12.975Z,25.85
2023-04-21T03:58:17.436Z,32.55
2023-04-21T04:00:22.104Z,31.00
2023-04-21T04:02:26.328Z,34.40
2023-04-21T04:04:30.812Z,32.88
2023-04-21T04:06:33.219Z,27.38
2023-04-21T04:08:34.891Z,30.25
2023-04-21T04:10:39.202Z,31.77
2023-04-21T04:12:59.540Z,36.30
2023-04-21T04:15:03.954Z,32.45
2023-04-21T04:17:05.421Z,30.65
2023-04-21T04:21:11.081Z,28.50
2023-04-21T04:23:31.849Z,33.80
2023-04-21T04:25:33.417Z,34.78
2023-04-21T04:29:58.409Z,29.42
2023-04-21T04:32:01.800Z,34.40
2023-04-21T04:34:24.499Z,35.92
2023-04-21T04:36:28.550Z,34.92
2023-04-21T04:38:30.347Z,37.85
2023-04-21T04:40:33.262Z,38.60
2023-04-21T04:42:34.787Z,37.17
2023-04-21T04:44:38.950Z,38.47
2023-04-21T04:46:40.772Z,37.17
2023-04-21T04:48:42.225Z,36.78
2023-04-21T04:50:44.049Z,33.58
2023-04-21T04:52:47.033Z,38.25
2023-04-21T04:54:48.661Z,36.42
2023-04-21T04:56:50.270Z,38.45
2023-04-21T04:58:51.726Z,39.15
2023-04-21T05:00:55.886Z,38.97
2023-04-21T05:03:00.402Z,38.88
2023-04-21T05:05:05.726Z,38.20
2023-04-21T05:07:07.835Z,43.03
2023-04-21T05:09:10.298Z,46.42
2023-04-21T05:11:11.784Z,45.83
2023-04-21T05:13:13.280Z,40.83
2023-04-21T05:15:18.166Z,41.70
2023-04-21T05:17:19.703Z,38.00
2023-04-21T05:19:21.079Z,38.92
2023-04-21T05:21:27.837Z,40.08
2023-04-21T05:23:32.159Z,43.22
2023-04-21T05:25:33.700Z,37.53
2023-04-21T05:29:42.113Z,46.78
2023-04-21T05:31:46.536Z,43.70
2023-04-21T05:33:53.973Z,37.13
2023-04-21T05:36:14.340Z,38.72
2023-04-21T05:40:32.444Z,35.97
2023-04-21T05:42:56.304Z,40.28
2023-04-21T05:45:18.609Z,44.03
2023-04-21T05:47:22.311Z,41.75
2023-04-21T05:49:26.545Z,30.98
2023-04-21T05:51:30.701Z,35.42
2023-04-21T05:55:40.365Z,34.38
2023-04-21T05:57:46.850Z,35.78
2023-04-21T05:59:53.860Z,31.17
2023-04-21T06:01:57.713Z,28.58
2023-04-21T06:04:02.286Z,35.67
2023-04-21T06:06:07.850Z,36.95
2023-04-21T06:08:11.984Z,37.72
2023-04-21T06:10:18.847Z,33.72
2023-04-21T06:12:22.873Z,35.33
2023-04-21T06:14:29.591Z,30.75
2023-04-21T06:16:34.145Z,35.40
2023-04-21T06:20:37.179Z,28.70
2023-04-21T06:22:41.500Z,29.00
2023-04-21T06:24:45.765Z,28.48
2023-04-21T06:26:50.062Z,24.13
2023-04-21T06:28:54.421Z,28.98
2023-04-21T06:30:59.429Z,25.23
2023-04-21T06:33:01.227Z,29.80
2023-04-21T06:35:02.748Z,26.42
2023-04-21T06:37:06.948Z,27.55
2023-04-21T06:39:11.214Z,30.77
2023-04-21T06:41:15.368Z,24.60
2023-04-21T06:45:21.052Z,21.23
2023-04-21T06:47:25.182Z,20.60
2023-04-21T06:49:26.740Z,27.65
2023-04-21T06:51:46.702Z,22.38
2023-04-21T06:53:51.215Z,25.25
2023-04-21T06:55:55.836Z,22.10
2023-04-21T06:57:57.250Z,20.60
2023-04-21T07:00:01.881Z,22.42
2023-04-21T07:02:21.761Z,20.55
2023-04-21T07:04:23.997Z,18.02
2023-04-21T07:06:28.009Z,18.27
2023-04-21T07:08:32.370Z,20.45
2023-04-21T07:10:33.835Z,18.58
2023-04-21T07:14:42.107Z,19.43
2023-04-21T07:16:46.485Z,17.20
2023-04-21T07:18:48.876Z,21.10
2023-04-21T07:20:53.284Z,18.67
2023-04-21T07:22:57.635Z,17.13
2023-04-21T07:27:26.897Z,13.45
2023-04-21T07:29:31.222Z,16.30
2023-04-21T07:31:36.003Z,17.88
2023-04-21T07:33:40.658Z,16.33
2023-04-21T07:35:42.286Z,16.27
2023-04-21T07:37:46.679Z,16.08
2023-04-21T07:40:10.598Z,14.10
2023-04-21T07:42:15.055Z,17.13
2023-04-21T07:44:19.594Z,18.42
2023-04-21T07:46:29.960Z,14.90
2023-04-21T07:48:31.535Z,17.85
2023-04-21T07:50:33.210Z,16.63
2023-04-21T07:52:34.683Z,18.58
2023-04-21T07:54:38.877Z,15.18
2023-04-21T07:56:43.209Z,21.77
2023-04-21T07:58:44.845Z,15.93
2023-04-21T08:00:46.413Z,21.63
2023-04-21T08:02:48.191Z,14.82
2023-04-21T08:05:08.726Z,15.98
2023-04-21T08:07:10.533Z,19.70
2023-04-21T08:09:12.171Z,14.20
2023-04-21T08:11:32.142Z,16.13
2023-04-21T08:13:33.778Z,16.08
2023-04-21T08:15:35.323Z,20.25
2023-04-21T08:17:37.043Z,15.45
2023-04-21T08:19:41.167Z,19.17
2023-04-21T08:21:46.062Z,19.85
2023-04-21T08:23:47.569Z,17.30
2023-04-21T08:25:51.890Z,15.88
2023-04-21T08:27:53.390Z,22.63
2023-04-21T08:29:57.761Z,19.23
2023-04-21T08:32:01.968Z,16.65
2023-04-21T08:34:07.266Z,14.07
2023-04-21T08:36:18.249Z,17.90
2023-04-21T08:38:23.722Z,23.23
2023-04-21T08:40:32.747Z,15.70
2023-04-21T08:42:34.942Z,20.35
2023-04-21T08:44:37.205Z,17.55
2023-04-21T08:46:44.513Z,18.98
2023-04-21T08:48:57.372Z,19.88
2023-04-21T08:51:07.537Z,19.42
2023-04-21T08:53:17.560Z,20.73
2023-04-21T08:55:22.450Z,17.63
2023-04-21T08:57:26.808Z,18.85
2023-04-21T08:59:35.145Z,17.92
2023-04-21T09:02:03.913Z,25.13
2023-04-21T09:04:25.583Z,15.15
2023-04-21T09:06:47.224Z,19.13
2023-04-21T09:09:02.640Z,19.85
2023-04-21T09:11:20.948Z,18.65
2023-04-21T09:13:38.493Z,17.80
2023-04-21T09:15:45.212Z,18.00
2023-04-21T09:18:00.854Z,18.15
2023-04-21T09:20:24.486Z,19.00
2023-04-21T09:24:34.820Z,22.15
2023-04-21T09:26:36.950Z,20.83
2023-04-21T09:28:42.838Z,19.63
2023-04-21T09:30:46.955Z,26.08
2023-04-21T09:32:55.915Z,16.25
2023-04-21T09:35:16.643Z,18.23
2023-04-21T09:37:24.284Z,16.80
2023-04-21T09:39:40.581Z,27.60
2023-04-21T09:41:47.364Z,19.10
2023-04-21T09:43:54.673Z,19.08
2023-04-21T09:45:56.487Z,21.98
2023-04-21T09:48:00.511Z,21.60
2023-04-21T09:52:18.351Z,21.02
2023-04-21T09:54:34.087Z,15.27
2023-04-21T09:56:37.316Z,20.98
2023-04-21T09:58:46.860Z,25.92
2023-04-21T10:00:51.888Z,18.52
2023-04-21T10:03:13.936Z,24.08
2023-04-21T10:05:15.758Z,19.88
2023-04-21T10:07:20.528Z,20.05
2023-04-21T10:09:24.012Z,19.13
2023-04-21T10:11:28.285Z,24.15
2023-04-21T10:13:30.253Z,22.35
2023-04-21T10:15:37.821Z,21.17
2023-04-21T10:17:39.460Z,25.20
2023-04-21T10:19:50.824Z,26.00
2023-04-21T10:21:58.145Z,20.05
2023-04-21T10:24:18.359Z,24.20
2023-04-21T10:26:24.451Z,20.20
2023-04-21T10:28:38.863Z,29.63
2023-04-21T10:30:43.276Z,21.65
2023-04-21T10:32:46.358Z,22.77
2023-04-21T10:34:49.217Z,20.47
2023-04-21T10:36:56.746Z,20.85
2023-04-21T10:39:00.982Z,23.60
2023-04-21T10:41:23.616Z,22.08
2023-04-21T10:43:48.128Z,31.17
2023-04-21T10:45:51.008Z,22.42
2023-04-21T10:47:53.226Z,19.40
2023-04-21T10:49:58.233Z,22.00
2023-04-21T10:52:02.999Z,17.77
2023-04-21T10:54:07.984Z,17.05
2023-04-21T10:56:12.040Z,14.95
2023-04-21T10:58:15.596Z,18.55
2023-04-21T11:00:18.988Z,18.65
2023-04-21T11:02:21.468Z,16.02
2023-04-21T11:04:26.385Z,15.50
2023-04-21T11:06:28.607Z,12.95
2023-04-21T11:08:32.705Z,14.10
2023-04-21T11:10:56.100Z,18.65
2023-04-21T11:12:58.074Z,12.25
2023-04-21T11:14:59.701Z,15.27
2023-04-21T11:17:05.353Z,13.77
2023-04-21T11:19:09.914Z,13.95
2023-04-21T11:21:20.196Z,14.77
2023-04-21T11:23:24.495Z,12.98
2023-04-21T11:25:29.787Z,10.80
2023-04-21T11:27:31.307Z,13.07
2023-04-21T11:29:35.823Z,10.02
2023-04-21T11:31:37.931Z,12.40
2023-04-21T11:33:42.503Z,8.00
2023-04-21T11:35:44.089Z,8.35
2023-04-21T11:38:06.898Z,9.15
2023-04-21T11:40:11.189Z,10.70
2023-04-21T11:42:22.609Z,8.68
2023-04-21T11:44:36.367Z,8.68
2023-04-21T11:46:46.943Z,8.88
2023-04-21T11:49:08.377Z,8.07
2023-04-21T11:51:18.746Z,9.52
2023-04-21T11:53:25.945Z,5.95
2023-04-21T11:55:55.129Z,7.13
2023-04-21T11:58:07.379Z,11.18
2023-04-21T12:00:21.678Z,9.32
2023-04-21T12:02:30.892Z,8.27
2023-04-21T12:04:41.648Z,11.52
2023-04-21T12:07:01.117Z,11.13
2023-04-21T12:09:11.120Z,13.38
2023-04-21T12:11:23.771Z,11.02
2023-04-21T12:13:36.745Z,10.77
2023-04-21T12:15:46.767Z,10.38
2023-04-21T12:17:59.853Z,12.85
2023-04-21T12:20:10.622Z,13.15
2023-04-21T12:22:21.520Z,12.32
2023-04-21T12:24:31.355Z,10.05
2023-04-21T12:26:43.417Z,11.75
2023-04-21T12:30:52.985Z,10.63
2023-04-21T12:32:55.875Z,10.82
2023-04-21T12:34:57.695Z,9.40
2023-04-21T12:36:59.346Z,12.98
2023-04-21T12:39:03.769Z,11.18
2023-04-21T12:41:05.911Z,12.57
2023-04-21T12:43:07.843Z,13.23
2023-04-21T12:45:09.497Z,10.35
2023-04-21T12:47:11.330Z,7.60
2023-04-21T12:49:17.225Z,6.32
2023-04-21T12:51:18.700Z,6.97
2023-04-21T12:53:38.653Z,7.72
2023-04-21T12:57:53.029Z,6.13
2023-04-21T12:59:57.365Z,14.38
2023-04-21T13:01:58.936Z,11.68
2023-04-21T13:04:00.724Z,6.90
2023-04-21T13:06:02.441Z,9.68
2023-04-21T13:08:03.960Z,7.20
2023-04-21T13:12:16.405Z,8.95
2023-04-21T13:14:21.004Z,7.85
2023-04-21T13:16:25.874Z,6.88
2023-04-21T13:18:28.753Z,6.60
2023-04-21T13:22:37.069Z,8.70
2023-04-21T13:24:38.612Z,8.77
2023-04-21T13:26:42.785Z,6.50
2023-04-21T13:28:46.851Z,7.50
2023-04-21T13:30:48.685Z,9.95
2023-04-21T13:32:50.266Z,5.75
2023-04-21T13:34:53.846Z,7.45
2023-04-21T13:37:16.160Z,9.95
2023-04-21T13:39:17.905Z,4.90
2023-04-21T13:41:22.615Z,5.07
2023-04-21T13:43:24.270Z,4.60
2023-04-21T13:45:31.790Z,5.15
2023-04-21T13:47:36.259Z,8.25
2023-04-21T13:49:40.922Z,6.00
2023-04-21T13:51:45.305Z,6.22
2023-04-21T13:53:49.704Z,4.28
2023-04-21T13:55:58.353Z,4.25
2023-04-21T13:58:02.796Z,3.97
2023-04-21T14:00:09.183Z,3.92
2023-04-21T14:02:10.711Z,7.18
2023-04-21T14:04:15.075Z,3.78
2023-04-21T14:06:19.451Z,5.65
2023-04-21T14:08:21.064Z,5.25
2023-04-21T14:10:41.135Z,3.88
2023-04-21T14:12:45.277Z,4.70
2023-04-21T14:14:49.657Z,4.60
2023-04-21T14:16:51.516Z,4.72
2023-04-21T14:19:11.467Z,3.00
2023-04-21T14:23:16.974Z,3.05
2023-04-21T14:25:21.450Z,3.00
2023-04-21T14:27:25.691Z,2.42
2023-04-21T14:29:27.398Z,3.58
2023-04-21T14:31:31.796Z,2.63
2023-04-21T14:33:52.167Z,3.42
2023-04-21T14:36:14.706Z,3.33
2023-04-21T14:38:35.713Z,3.75
2023-04-21T14:40:40.143Z,4.20
2023-04-21T14:42:41.641Z,3.10
2023-04-21T14:44:43.236Z,4.32
2023-04-21T14:46:56.921Z,2.50
2023-04-21T14:49:26.158Z,2.75
2023-04-21T14:51:31.941Z,3.67
2023-04-21T14:53:52.226Z,2.97
2023-04-21T14:56:12.543Z,3.00
2023-04-21T14:58:15.510Z,3.58
2023-04-21T15:00:24.340Z,4.38
2023-04-21T15:02:31.879Z,3.60
2023-04-21T15:04:38.811Z,4.10
2023-04-21T15:06:42.678Z,3.88
2023-04-21T15:08:45.685Z,4.05
2023-04-21T15:10:49.612Z,3.92
2023-04-21T15:12:54.296Z,3.75
2023-04-21T15:14:59.269Z,3.70
2023-04-21T15:17:06.738Z,4.22
2023-04-21T15:19:11.072Z,3.35
2023-04-21T15:21:20.502Z,5.75
2023-04-21T15:23:24.010Z,4.63
2023-04-21T15:25:27.783Z,4.40
2023-04-21T15:27:33.654Z,3.70
2023-04-21T15:29:36.919Z,4.75
2023-04-21T15:31:46.872Z,4.13
2023-04-21T15:34:08.902Z,6.72
2023-04-21T15:36:11.134Z,4.70
2023-04-21T15:38:16.064Z,5.72
2023-04-21T15:40:20.711Z,5.93
2023-04-21T15:42:28.241Z,5.90
2023-04-21T15:44:29.771Z,5.50
2023-04-21T15:46:31.324Z,5.50
2023-04-21T15:48:35.383Z,6.20
2023-04-21T15:50:36.908Z,7.78
2023-04-21T15:52:42.574Z,7.07
2023-04-21T15:54:46.989Z,5.47
2023-04-21T15:56:51.351Z,6.47
2023-04-21T15:58:56.002Z,5.70
2023-04-21T16:00:57.584Z,6.00
2023-04-21T16:02:59.302Z,6.80
2023-04-21T16:05:01.439Z,9.00
2023-04-21T16:07:21.842Z,5.65
2023-04-21T16:09:26.501Z,11.93
2023-04-21T16:11:29.294Z,7.68
2023-04-21T16:13:34.665Z,8.48
2023-04-21T16:15:38.956Z,7.35
2023-04-21T16:17:40.589Z,5.93
2023-04-21T16:19:45.586Z,8.63
2023-04-21T16:21:47.288Z,7.32
2023-04-21T16:23:51.632Z,5.88
2023-04-21T16:25:59.232Z,5.43
2023-04-21T16:28:03.358Z,6.57
2023-04-21T16:30:08.017Z,6.55
2023-04-21T16:32:09.858Z,6.53
2023-04-21T16:34:13.751Z,6.20
2023-04-21T16:36:18.128Z,5.88
2023-04-21T16:38:19.864Z,5.43
2023-04-21T16:40:22.391Z,7.80
2023-04-21T16:42:26.760Z,5.90
2023-04-21T16:46:32.566Z,7.75
2023-04-21T16:48:37.328Z,6.97
2023-04-21T16:50:42.036Z,5.72
2023-04-21T16:52:46.703Z,7.20
2023-04-21T16:54:51.426Z,7.82
2023-04-21T16:56:57.602Z,6.72
2023-04-21T16:59:02.068Z,6.22
2023-04-21T17:01:04.926Z,5.55
2023-04-21T17:03:09.315Z,7.38
2023-04-21T17:05:15.677Z,7.60
2023-04-21T17:07:17.448Z,6.75
2023-04-21T17:09:21.617Z,7.07
2023-04-21T17:11:23.017Z,8.07
2023-04-21T17:13:27.087Z,7.25
2023-04-21T17:15:33.008Z,6.80
2023-04-21T17:17:42.055Z,6.90
2023-04-21T17:19:46.289Z,6.65
2023-04-21T17:21:47.873Z,6.78
2023-04-21T17:23:50.444Z,7.43
2023-04-21T17:25:52.212Z,6.93
2023-04-21T17:27:53.756Z,6.75
2023-04-21T17:29:58.024Z,6.20
2023-04-21T17:31:59.526Z,7.05
2023-04-21T17:34:03.766Z,6.82
2023-04-21T17:36:08.274Z,6.90
2023-04-21T17:38:09.824Z,7.88
2023-04-21T17:40:14.257Z,8.57
2023-04-21T17:42:18.693Z,9.80
2023-04-21T17:44:23.076Z,8.35
2023-04-21T17:46:25.477Z,6.82
2023-04-21T17:48:27.500Z,7.60
2023-04-21T17:50:31.174Z,9.40
2023-04-21T17:52:35.784Z,7.63
2023-04-21T17:54:40.582Z,8.77
2023-04-21T17:56:42.624Z,7.55
2023-04-21T17:58:47.020Z,8.38
2023-04-21T18:00:48.877Z,8.98
2023-04-21T18:02:53.468Z,7.97
2023-04-21T18:05:03.060Z,8.40
2023-04-21T18:07:11.814Z,8.15
2023-04-21T18:09:29.265Z,10.60
2023-04-21T18:11:40.602Z,11.32
2023-04-21T18:13:57.250Z,7.72
2023-04-21T18:16:12.768Z,7.88
2023-04-21T18:18:23.076Z,7.20
2023-04-21T18:20:37.296Z,8.30
2023-04-21T18:22:43.881Z,8.77
2023-04-21T18:24:53.768Z,6.95
2023-04-21T18:27:01.460Z,8.35
2023-04-21T18:29:07.154Z,6.65
2023-04-21T18:31:11.209Z,8.73
2023-04-21T18:33:24.053Z,8.43
2023-04-21T18:35:35.491Z,6.55
2023-04-21T18:37:41.952Z,5.82
2023-04-21T18:39:48.069Z,7.82
2023-04-21T18:42:09.117Z,7.22
2023-04-21T18:44:13.972Z,6.10
2023-04-21T18:46:18.266Z,8.82
2023-04-21T18:48:22.611Z,6.10
2023-04-21T18:50:24.330Z,9.18
2023-04-21T18:52:25.976Z,8.07
2023-04-21T18:54:30.293Z,8.70
2023-04-21T18:56:32.696Z,7.88
2023-04-21T18:58:37.062Z,6.90
2023-04-21T19:00:39.344Z,6.95
2023-04-21T19:02:48.515Z,9.35
2023-04-21T19:04:53.386Z,9.90
2023-04-21T19:06:55.001Z,9.95
2023-04-21T19:09:00.250Z,17.73
2023-04-21T19:11:04.425Z,14.95
2023-04-21T19:13:05.994Z,15.20
2023-04-21T19:15:08.255Z,14.15
2023-04-21T19:17:12.377Z,15.48
2023-04-21T19:19:19.483Z,12.13
2023-04-21T19:21:21.165Z,16.42
2023-04-21T19:23:23.396Z,12.13
2023-04-21T19:25:25.045Z,12.07
2023-04-21T19:27:26.477Z,14.82
2023-04-21T19:29:28.082Z,16.75
2023-04-21T19:31:30.059Z,12.25
2023-04-21T19:33:37.721Z,11.27
2023-04-21T19:35:42.581Z,10.18
2023-04-21T19:37:44.140Z,18.92
2023-04-21T19:41:49.462Z,13.20
2023-04-21T19:45:58.691Z,8.68
2023-04-21T19:48:04.436Z,12.82
2023-04-21T19:50:12.847Z,11.82
2023-04-21T19:52:14.289Z,12.35
2023-04-21T19:54:34.813Z,15.10
2023-04-21T19:56:36.832Z,11.57
2023-04-21T19:58:40.258Z,9.27
2023-04-21T20:00:46.895Z,9.13
2023-04-21T20:03:07.804Z,10.13
2023-04-21T20:05:27.932Z,9.43
2023-04-21T20:07:29.649Z,11.90
2023-04-21T20:09:34.651Z,8.07
2023-04-21T20:11:36.159Z,8.70
2023-04-21T20:13:41.172Z,11.82
2023-04-21T20:15:45.936Z,9.80
2023-04-21T20:17:49.026Z,8.90
2023-04-21T20:19:56.020Z,9.43
2023-04-21T20:22:16.110Z,8.00
2023-04-21T20:24:20.504Z,9.57
2023-04-21T20:26:22.564Z,8.93
2023-04-21T20:28:24.241Z,12.40
2023-04-21T20:30:25.881Z,10.45
2023-04-21T20:32:30.298Z,13.10
2023-04-21T20:34:36.211Z,12.23
2023-04-21T20:36:37.765Z,17.27
2023-04-21T20:38:42.060Z,13.80
2023-04-21T20:40:50.226Z,13.57
2023-04-21T20:42:54.348Z,12.60
2023-04-21T20:45:06.737Z,11.18
2023-04-21T20:47:11.665Z,14.13
2023-04-21T20:49:16.411Z,14.63
2023-04-21T20:51:20.808Z,20.63
2023-04-21T20:53:22.426Z,16.83
2023-04-21T20:55:26.722Z,13.57
2023-04-21T20:57:28.345Z,10.43
2023-04-21T20:59:32.680Z,9.93
2023-04-21T21:01:39.963Z,11.82
2023-04-21T21:03:41.876Z,9.90
2023-04-21T21:05:48.009Z,8.63
2023-04-21T21:07:49.698Z,12.30
2023-04-21T21:09:56.886Z,10.45
2023-04-21T21:12:05.369Z,12.60
2023-04-21T21:14:08.985Z,10.40
2023-04-21T21:16:31.721Z,10.25
2023-04-21T21:20:43.170Z,14.32
2023-04-21T21:22:46.901Z,13.73
2023-04-21T21:24:51.299Z,12.88
2023-04-21T21:26:58.394Z,15.27
2023-04-21T21:29:02.576Z,15.43
2023-04-21T21:31:24.761Z,16.70
2023-04-21T21:33:28.663Z,17.15
2023-04-21T21:35:35.501Z,16.10
2023-04-21T21:37:57.261Z,15.50
2023-04-21T21:40:04.064Z,19.40
2023-04-21T21:42:10.590Z,17.95
2023-04-21T21:44:17.009Z,24.90
2023-04-21T21:46:22.221Z,14.95
2023-04-21T21:48:26.742Z,12.02
2023-04-21T21:50:28.213Z,9.45
2023-04-21T21:52:32.632Z,7.30
2023-04-21T21:54:34.105Z,8.38
2023-04-21T21:56:36.721Z,12.15
2023-04-21T21:58:38.167Z,10.98
2023-04-21T22:02:44.417Z,9.90
2023-04-21T22:04:49.493Z,11.75
2023-04-21T22:06:51.998Z,11.63
2023-04-21T22:08:56.272Z,9.60
2023-04-21T22:13:03.393Z,12.82
2023-04-21T22:15:07.923Z,9.02
2023-04-21T22:17:10.458Z,9.68
2023-04-21T22:19:12.594Z,8.80
2023-04-21T22:21:16.733Z,9.10
2023-04-21T22:23:19.758Z,8.68
2023-04-21T22:25:29.659Z,8.85
2023-04-21T22:27:33.831Z,9.13
2023-04-21T22:29:35.399Z,9.43
2023-04-21T22:33:59.358Z,13.65
2023-04-21T22:36:00.874Z,9.77
2023-04-21T22:40:07.121Z,10.25
2023-04-21T22:42:11.221Z,10.85
2023-04-21T22:44:13.366Z,12.73
2023-04-21T22:46:17.442Z,8.30
2023-04-21T22:50:23.102Z,9.80
2023-04-21T22:52:26.731Z,10.13
2023-04-21T22:54:28.312Z,10.70
2023-04-21T22:56:32.724Z,11.57
2023-04-21T22:58:53.027Z,16.05
2023-04-21T23:00:54.577Z,11.98
2023-04-21T23:02:59.514Z,11.63
2023-04-21T23:05:01.183Z,12.10
2023-04-21T23:07:03.189Z,14.30
2023-04-21T23:09:07.426Z,14.23
2023-04-21T23:13:15.874Z,10.23
2023-04-21T23:17:24.310Z,13.27
2023-04-21T23:19:25.776Z,14.27
2023-04-21T23:21:46.504Z,15.10
2023-04-21T23:23:50.916Z,14.82
2023-04-21T23:25:55.401Z,17.85
2023-04-21T23:30:04.292Z,19.08
2023-04-21T23:32:08.642Z,20.88
2023-04-21T23:34:13.319Z,17.67
2023-04-21T23:38:21.558Z,18.10
2023-04-21T23:40:25.826Z,21.00
2023-04-21T23:42:27.292Z,16.77
2023-04-21T23:44:31.642Z,13.73
2023-04-21T23:46:33.170Z,17.63
2023-04-21T23:48:53.543Z,12.68
2023-04-21T23:50:55.309Z,13.02
2023-04-21T23:53:15.528Z,15.23
2023-04-21T23:55:35.858Z,12.40
2023-04-21T23:57:38.161Z,11.73
2023-04-21T23:59:42.547Z,11.02
